Time,TemperatureF,DewpointF,PressureIn,WindDirection,WindDirectionDegrees,WindSpeedMPH,WindSpeedGustMPH,Humidity,HourlyPrecipIn,Conditions,Clouds,dailyrainin,SolarRadiationWatts/m^2,SoftwareType,DateUTC
2013-08-19 00:03:00,60.0,59.0,-100.00,NNW,331,3.0,6.0,96,0.00,,,0.02,1.000000,,2013-08-19 04:03:00,
2013-08-19 00:12:00,60.0,59.0,-100.00,NNW,331,3.0,6.0,96,0.00,,,0.02,1.000000,,2013-08-19 04:12:00,
2013-08-19 00:23:00,60.0,59.0,-100.00,NNW,331,3.0,6.0,96,0.00,,,0.02,1.000000,,2013-08-19 04:23:00,
2013-08-19 01:22:00,59.0,58.0,-100.00,NW,322,2.0,6.0,97,0.00,,,0.02,1.000000,,2013-08-19 05:22:00,
2013-08-19 01:52:00,58.0,57.0,-100.00,NNW,327,3.0,4.0,97,0.00,,,0.02,1.000000,,2013-08-19 05:52:00,
2013-08-19 02:02:00,58.0,57.0,-100.00,NNW,327,3.0,4.0,97,0.00,,,0.02,1.000000,,2013-08-19 06:02:00,
2013-08-19 02:11:00,58.0,57.0,-100.00,NNW,327,3.0,4.0,97,0.00,,,0.02,1.000000,,2013-08-19 06:11:00,
2013-08-19 02:21:00,58.0,57.0,-100.00,NNW,327,3.0,4.0,97,0.00,,,0.02,1.000000,,2013-08-19 06:21:00,
2013-08-19 02:52:00,57.0,56.0,-100.00,NW,325,3.0,5.0,97,0.00,,,0.02,1.000000,,2013-08-19 06:52:00,
2013-08-19 03:01:00,57.0,56.0,-100.00,NW,325,3.0,5.0,97,0.00,,,0.02,1.000000,,2013-08-19 07:01:00,
2013-08-19 03:12:00,57.0,56.0,-100.00,NW,325,3.0,5.0,97,0.00,,,0.02,1.000000,,2013-08-19 07:12:00,
2013-08-19 03:21:00,57.0,56.0,-100.00,NW,325,3.0,5.0,97,0.00,,,0.02,1.000000,,2013-08-19 07:21:00,
2013-08-19 03:52:00,56.0,55.0,-100.00,West,281,2.0,3.0,97,0.00,,,0.02,1.000000,,2013-08-19 07:52:00,
2013-08-19 04:02:00,56.0,55.0,-100.00,West,281,2.0,3.0,97,0.00,,,0.02,1.000000,,2013-08-19 08:02:00,
2013-08-19 04:11:00,56.0,55.0,-100.00,West,281,2.0,3.0,97,0.00,,,0.02,1.000000,,2013-08-19 08:11:00,
2013-08-19 04:21:00,56.0,55.0,-100.00,West,281,2.0,3.0,97,0.00,,,0.02,1.000000,,2013-08-19 08:21:00,
2013-08-19 04:52:00,56.0,55.0,-100.00,WSW,258,2.0,4.0,97,0.00,,,0.02,1.000000,,2013-08-19 08:52:00,
2013-08-19 05:01:00,56.0,55.0,-100.00,WSW,258,2.0,4.0,97,0.00,,,0.02,1.000000,,2013-08-19 09:01:00,
2013-08-19 05:11:00,56.0,55.0,-100.00,WSW,258,2.0,4.0,97,0.00,,,0.02,1.000000,,2013-08-19 09:11:00,
2013-08-19 05:22:00,56.0,55.0,-100.00,WSW,258,2.0,4.0,97,0.00,,,0.02,1.000000,,2013-08-19 09:22:00,
2013-08-19 05:53:00,56.0,55.0,-100.00,WNW,285,2.0,5.0,97,0.00,,,0.02,1.000000,,2013-08-19 09:53:00,
2013-08-19 06:03:00,56.0,55.0,-100.00,WNW,285,2.0,5.0,97,0.00,,,0.02,1.000000,,2013-08-19 10:03:00,
2013-08-19 06:12:00,56.0,55.0,-100.00,WNW,285,2.0,5.0,97,0.00,,,0.02,1.000000,,2013-08-19 10:12:00,
2013-08-19 06:23:00,56.0,55.0,-100.00,WNW,285,2.0,5.0,97,0.00,,,0.02,1.000000,,2013-08-19 10:23:00,
2013-08-19 06:52:00,57.0,56.0,-100.00,West,263,3.0,5.0,97,0.00,,,0.02,7.000000,,2013-08-19 10:52:00,
2013-08-19 07:02:00,57.0,56.0,-100.00,West,263,3.0,5.0,97,0.00,,,0.02,7.000000,,2013-08-19 11:02:00,
2013-08-19 07:12:00,57.0,56.0,-100.00,West,263,3.0,5.0,97,0.00,,,0.02,7.000000,,2013-08-19 11:12:00,
2013-08-19 07:22:00,57.0,56.0,-100.00,West,263,3.0,5.0,97,0.00,,,0.02,7.000000,,2013-08-19 11:22:00,
2013-08-19 07:52:00,63.0,62.0,-100.00,West,274,2.0,6.0,95,0.00,,,0.02,79.000000,,2013-08-19 11:52:00,
2013-08-19 08:02:00,63.0,62.0,-100.00,West,274,2.0,6.0,95,0.00,,,0.02,79.000000,,2013-08-19 12:02:00,
2013-08-19 08:11:00,63.0,62.0,-100.00,West,274,2.0,6.0,95,0.00,,,0.02,79.000000,,2013-08-19 12:11:00,
2013-08-19 08:21:00,63.0,62.0,-100.00,West,274,2.0,6.0,95,0.00,,,0.02,79.000000,,2013-08-19 12:21:00,
2013-08-19 08:52:00,69.0,62.0,-100.00,WNW,283,4.0,8.0,78,0.00,,,0.02,235.000000,,2013-08-19 12:52:00,
2013-08-19 09:03:00,69.0,62.0,-100.00,WNW,283,4.0,8.0,78,0.00,,,0.02,235.000000,,2013-08-19 13:03:00,
2013-08-19 09:13:00,69.0,62.0,-100.00,WNW,283,4.0,8.0,78,0.00,,,0.02,235.000000,,2013-08-19 13:13:00,
2013-08-19 09:22:00,69.0,62.0,-100.00,WNW,283,4.0,8.0,78,0.00,,,0.02,235.000000,,2013-08-19 13:22:00,
2013-08-19 09:52:00,74.0,63.0,-100.00,WSW,258,4.0,11.0,69,0.00,,,0.02,429.000000,,2013-08-19 13:52:00,
2013-08-19 10:02:00,74.0,63.0,-100.00,WSW,258,4.0,11.0,69,0.00,,,0.02,429.000000,,2013-08-19 14:02:00,
2013-08-19 10:11:00,74.0,63.0,-100.00,WSW,258,4.0,11.0,69,0.00,,,0.02,429.000000,,2013-08-19 14:11:00,
2013-08-19 10:22:00,74.0,63.0,-100.00,WSW,258,4.0,11.0,69,0.00,,,0.02,429.000000,,2013-08-19 14:22:00,
2013-08-19 10:52:00,79.0,63.0,-100.00,WNW,289,5.0,10.0,58,0.00,,,0.02,620.000000,,2013-08-19 14:52:00,
2013-08-19 11:01:00,79.0,63.0,-100.00,WNW,289,5.0,10.0,58,0.00,,,0.02,620.000000,,2013-08-19 15:01:00,
2013-08-19 11:11:00,79.0,63.0,-100.00,WNW,289,5.0,10.0,58,0.00,,,0.02,620.000000,,2013-08-19 15:11:00,
2013-08-19 11:22:00,79.0,63.0,-100.00,WNW,289,5.0,10.0,58,0.00,,,0.02,620.000000,,2013-08-19 15:22:00,
2013-08-19 11:54:00,80.0,65.0,-100.00,SSW,209,6.0,11.0,61,0.00,,,0.02,671.000000,,2013-08-19 15:54:00,
2013-08-19 12:05:00,80.0,65.0,-100.00,SSW,209,6.0,11.0,61,0.00,,,0.02,671.000000,,2013-08-19 16:05:00,
2013-08-19 12:13:00,80.0,65.0,-100.00,SSW,209,6.0,11.0,61,0.00,,,0.02,671.000000,,2013-08-19 16:13:00,
2013-08-19 12:23:00,80.0,65.0,-100.00,SSW,209,6.0,11.0,61,0.00,,,0.02,671.000000,,2013-08-19 16:23:00,
2013-08-19 12:25:00,77.0,-99.9,-100.00,SW,222,8.0,13.0,68,0.00,,,0.02,725.000000,,2013-08-19 16:25:00,
2013-08-19 13:04:00,77.0,66.0,-100.00,SW,222,8.0,13.0,68,0.00,,,0.02,725.000000,,2013-08-19 17:04:00,
2013-08-19 13:13:00,77.0,66.0,-100.00,SW,222,8.0,13.0,68,0.00,,,0.02,725.000000,,2013-08-19 17:13:00,
2013-08-19 13:25:00,74.0,64.0,-100.00,SW,222,8.0,13.0,72,0.00,,,0.02,507.000000,,2013-08-19 17:25:00,
2013-08-19 13:57:00,74.0,64.0,-100.00,SW,222,8.0,13.0,72,0.00,,,0.02,507.000000,,2013-08-19 17:57:00,
2013-08-19 14:05:00,74.0,64.0,-100.00,SW,222,8.0,13.0,72,0.00,,,0.02,507.000000,,2013-08-19 18:05:00,
2013-08-19 14:19:00,74.0,64.0,-100.00,SW,222,8.0,13.0,72,0.00,,,0.02,507.000000,,2013-08-19 18:19:00,
2013-08-19 14:25:00,-999.0,-99.9,-100.00,SW,221,6.0,14.0,69,0.00,,,0.02,418.000000,,2013-08-19 18:25:00,
2013-08-19 14:50:00,-999.0,-99.9,-100.00,SW,221,6.0,14.0,69,0.00,,,0.02,418.000000,,2013-08-19 18:50:00,
2013-08-19 15:00:00,-999.0,-99.9,-100.00,SW,221,6.0,14.0,69,0.00,,,0.02,418.000000,,2013-08-19 19:00:00,
2013-08-19 15:07:00,77.0,66.0,-100.00,SW,221,6.0,14.0,69,0.00,,,0.02,418.000000,,2013-08-19 19:07:00,
2013-08-19 15:16:00,77.0,66.0,-100.00,SW,221,6.0,14.0,69,0.00,,,0.02,418.000000,,2013-08-19 19:16:00,
2013-08-19 15:25:00,77.0,-99.9,-100.00,SW,232,6.0,11.0,65,0.00,,,0.02,339.000000,,2013-08-19 19:25:00,
2013-08-19 15:59:00,77.0,64.0,-100.00,SW,232,6.0,11.0,65,0.00,,,0.02,339.000000,,2013-08-19 19:59:00,
2013-08-19 16:08:00,77.0,64.0,-100.00,SW,232,6.0,11.0,65,0.00,,,0.02,339.000000,,2013-08-19 20:08:00,
2013-08-19 16:20:00,77.0,64.0,-100.00,SW,232,6.0,11.0,65,0.00,,,0.02,339.000000,,2013-08-19 20:20:00,
2013-08-19 16:25:00,76.0,63.0,-100.00,WSW,237,5.0,12.0,65,0.00,,,0.02,261.000000,,2013-08-19 20:25:00,
2013-08-19 17:00:00,-999.0,-99.9,-100.00,WSW,237,5.0,12.0,-999,-99.99,,,-99.99,261.000000,,2013-08-19 21:00:00,
2013-08-19 17:09:00,76.0,63.0,-100.00,WSW,237,5.0,12.0,65,0.00,,,0.02,261.000000,,2013-08-19 21:09:00,
2013-08-19 17:16:00,76.0,63.0,-100.00,WSW,237,5.0,12.0,65,0.00,,,0.02,261.000000,,2013-08-19 21:16:00,
2013-08-19 17:25:00,75.0,62.0,-100.00,SW,233,4.0,11.0,64,0.00,,,0.02,153.000000,,2013-08-19 21:25:00,
2013-08-19 17:55:00,75.0,62.0,-100.00,SW,233,4.0,11.0,64,0.00,,,0.02,153.000000,,2013-08-19 21:55:00,
2013-08-19 18:06:00,75.0,62.0,-100.00,SW,233,4.0,11.0,64,0.00,,,0.02,153.000000,,2013-08-19 22:06:00,
2013-08-19 18:25:00,73.0,60.0,-100.00,SW,235,3.0,9.0,64,0.00,,,0.02,67.000000,,2013-08-19 22:25:00,
2013-08-19 18:55:00,73.0,60.0,-100.00,SW,235,3.0,9.0,64,0.00,,,0.02,67.000000,,2013-08-19 22:55:00,
2013-08-19 19:05:00,73.0,60.0,-100.00,SW,235,3.0,9.0,64,0.00,,,0.02,67.000000,,2013-08-19 23:05:00,
2013-08-19 19:15:00,73.0,60.0,-100.00,SW,235,3.0,9.0,64,0.00,,,0.02,67.000000,,2013-08-19 23:15:00,
2013-08-19 19:55:00,70.0,64.0,-100.00,SW,219,3.0,5.0,82,0.00,,,0.02,19.000000,,2013-08-19 23:55:00,
2013-08-19 20:02:00,70.0,64.0,-100.00,SW,219,3.0,5.0,82,0.00,,,0.02,19.000000,,2013-08-20 00:02:00,
2013-08-19 20:11:00,70.0,64.0,-100.00,SW,219,3.0,5.0,82,0.00,,,0.02,19.000000,,2013-08-20 00:11:00,
2013-08-19 20:24:00,70.0,64.0,-100.00,SW,219,3.0,5.0,82,0.00,,,0.02,19.000000,,2013-08-20 00:24:00,
2013-08-19 20:53:00,69.0,66.0,-100.00,WSW,253,1.0,7.0,90,0.00,,,0.01,1.000000,,2013-08-20 00:53:00,
2013-08-19 21:03:00,69.0,66.0,-100.00,WSW,253,1.0,7.0,90,0.00,,,0.01,1.000000,,2013-08-20 01:03:00,
2013-08-19 21:11:00,69.0,66.0,-100.00,WSW,253,1.0,7.0,90,0.00,,,0.01,1.000000,,2013-08-20 01:11:00,
2013-08-19 21:22:00,69.0,66.0,-100.00,WSW,253,1.0,7.0,90,0.00,,,0.01,1.000000,,2013-08-20 01:22:00,
2013-08-19 21:52:00,67.0,65.0,-100.00,NNW,334,2.0,3.0,93,0.00,,,0.00,1.000000,,2013-08-20 01:52:00,
2013-08-19 22:02:00,67.0,65.0,-100.00,NNW,334,2.0,3.0,93,0.00,,,0.00,1.000000,,2013-08-20 02:02:00,
2013-08-19 22:11:00,67.0,65.0,-100.00,NNW,334,2.0,3.0,93,0.00,,,0.00,1.000000,,2013-08-20 02:11:00,
2013-08-19 22:21:00,67.0,65.0,-100.00,NNW,334,2.0,3.0,93,0.00,,,0.00,1.000000,,2013-08-20 02:21:00,
2013-08-19 22:52:00,68.0,65.0,-100.00,SW,226,3.0,7.0,91,0.00,,,0.00,0.000000,,2013-08-20 02:52:00,
2013-08-19 23:02:00,68.0,65.0,-100.00,SW,226,3.0,7.0,91,0.00,,,0.00,0.000000,,2013-08-20 03:02:00,
2013-08-19 23:11:00,68.0,65.0,-100.00,SW,226,3.0,7.0,91,0.00,,,0.00,0.000000,,2013-08-20 03:11:00,
2013-08-19 23:22:00,68.0,65.0,-100.00,SW,226,3.0,7.0,91,0.00,,,0.00,0.000000,,2013-08-20 03:22:00,
2013-08-19 23:54:00,67.0,65.0,-100.00,West,277,2.0,6.0,93,0.01,,,0.01,0.000000,,2013-08-20 03:54:00,